Terminal Aerodrome Forecast
Issued by NWS

Home | Current Version | Previous Version | Text Only | Print | Product List | Glossary On
Versions: 1 2 3 4 5 6 7 8 9 10 11 12 13 14 15 16 17 18 19 20
000
FTUS43 KGRB 071722
TAFMTW
TAF
KMTW 071722Z 0718/0818 36010G18KT P6SM BKN045
     FM072300 04010KT P6SM SCT050
     FM080200 VRB03KT P6SM SKC
     FM080900 00000KT P6SM SKC
     FM081400 08006KT P6SM SCT040=

USA.gov is the U.S. government's official web portal to all federal, state and local government web resources and services.